Time;durP1;ratioP1;P1;durP2;ratioP2;P2;SDS_P1;SDS_P2;PMS_P1;PMS_P2;Temp;Humidity;BMP_temperature;BMP_pressure;BME280_temperature;BME280_humidity;BME280_pressure;Samples;Min_cycle;Max_cycle;Signal;HPM_P1;HPM_P2
2024/01/10 00:01:51;;;;;;;16.95;13.07;;;;;;;4.52;100.00;100662.31;4893120;29;20040;-75
2024/01/10 00:04:16;;;;;;;21.60;14.20;;;;;;;4.45;100.00;100655.69;4906101;29;20039;-75
2024/01/10 00:06:42;;;;;;;19.92;14.10;;;;;;;4.41;100.00;100658.56;4906306;29;20441;-76
2024/01/10 00:09:08;;;;;;;17.95;13.70;;;;;;;4.41;100.00;100654.19;4908257;29;20032;-76
2024/01/10 00:11:34;;;;;;;19.25;14.13;;;;;;;4.43;100.00;100652.31;4906184;29;20040;-75
2024/01/10 00:13:59;;;;;;;17.77;13.43;;;;;;;4.46;100.00;100654.78;4901956;29;20172;-75
2024/01/10 00:16:28;;;;;;;19.02;13.88;;;;;;;4.45;100.00;100649.63;4903897;29;20139;-75
2024/01/10 00:18:53;;;;;;;17.08;13.13;;;;;;;4.46;100.00;100652.19;4889845;29;20092;-75
2024/01/10 00:21:19;;;;;;;20.33;13.77;;;;;;;4.49;100.00;100643.31;4903606;29;20389;-76
2024/01/10 00:23:44;;;;;;;17.13;14.07;;;;;;;4.53;100.00;100643.09;4902875;29;20040;-75
2024/01/10 00:26:09;;;;;;;20.83;14.23;;;;;;;4.57;100.00;100637.69;4905241;29;20482;-76
2024/01/10 00:28:35;;;;;;;17.73;13.63;;;;;;;4.58;100.00;100639.41;4902783;29;20027;-75
2024/01/10 00:31:01;;;;;;;18.88;13.63;;;;;;;4.55;100.00;100656.06;4904588;29;20160;-75
2024/01/10 00:33:26;;;;;;;19.80;13.55;;;;;;;4.48;100.00;100645.06;4901828;29;20052;-76
2024/01/10 00:35:51;;;;;;;16.48;13.60;;;;;;;4.46;100.00;100651.31;4894070;29;20107;-74
2024/01/10 00:38:17;;;;;;;17.02;13.30;;;;;;;4.38;100.00;100643.84;4905188;29;20040;-75
2024/01/10 00:40:42;;;;;;;15.60;13.48;;;;;;;4.40;100.00;100647.25;4905877;29;20033;-75
2024/01/10 00:43:08;;;;;;;16.30;13.68;;;;;;;4.41;100.00;100646.34;4903027;29;20034;-75
2024/01/10 00:45:33;;;;;;;16.77;13.05;;;;;;;4.45;100.00;100647.88;4904905;29;20064;-73
2024/01/10 00:47:59;;;;;;;16.58;12.73;;;;;;;4.51;100.00;100647.56;4902681;29;20036;-75
2024/01/10 00:50:24;;;;;;;16.85;13.18;;;;;;;4.56;100.00;100641.25;4903675;29;20047;-74
2024/01/10 00:52:49;;;;;;;16.40;13.18;;;;;;;4.59;100.00;100651.56;4902715;29;20028;-74
2024/01/10 00:55:15;;;;;;;15.93;13.02;;;;;;;4.61;100.00;100654.91;4904297;29;20063;-76
2024/01/10 00:57:40;;;;;;;16.33;11.68;;;;;;;4.61;100.00;100653.16;4903063;29;20032;-75
2024/01/10 01:00:08;;;;;;;14.75;11.38;;;;;;;4.57;100.00;100659.47;4905971;29;20080;-75
2024/01/10 01:02:33;;;;;;;14.13;10.75;;;;;;;4.57;100.00;100658.63;4904245;29;20028;-76
2024/01/10 01:04:59;;;;;;;13.38;10.95;;;;;;;4.57;100.00;100663.84;4903961;29;20027;-75
2024/01/10 01:07:26;;;;;;;13.65;11.85;;;;;;;4.54;100.00;100667.44;4903378;29;20527;-76
2024/01/10 01:09:51;;;;;;;18.25;11.80;;;;;;;4.51;100.00;100665.84;4904000;29;20814;-74
2024/01/10 01:12:16;;;;;;;18.50;13.18;;;;;;;4.48;100.00;100665.13;4906319;29;20032;-74
2024/01/10 01:14:42;;;;;;;18.88;13.52;;;;;;;4.37;100.00;100668.28;4904373;29;20047;-75
2024/01/10 01:17:08;;;;;;;17.17;12.75;;;;;;;4.24;100.00;100671.63;4903289;29;20107;-76
2024/01/10 01:19:33;;;;;;;18.33;13.38;;;;;;;4.16;100.00;100668.53;4905613;29;20071;-75
2024/01/10 01:21:58;;;;;;;17.00;12.63;;;;;;;4.12;100.00;100673.06;4902047;29;20366;-75
2024/01/10 01:24:24;;;;;;;18.40;14.18;;;;;;;4.12;100.00;100678.28;4905415;29;20143;-76
2024/01/10 01:26:49;;;;;;;20.75;13.30;;;;;;;4.11;100.00;100681.81;4904570;29;20075;-75
2024/01/10 01:29:16;;;;;;;21.73;13.88;;;;;;;4.14;100.00;100684.25;4904237;29;20091;-76
2024/01/10 01:31:41;;;;;;;19.15;13.88;;;;;;;4.16;100.00;100678.97;4901267;29;20097;-74
2024/01/10 01:34:07;;;;;;;18.70;13.23;;;;;;;4.13;100.00;100680.81;4904130;29;20056;-74
2024/01/10 01:36:32;;;;;;;19.70;14.50;;;;;;;4.15;100.00;100688.56;4902707;29;20032;-76
2024/01/10 01:38:58;;;;;;;18.08;13.57;;;;;;;4.17;100.00;100686.75;4904159;29;20048;-76
2024/01/10 01:41:23;;;;;;;17.40;13.57;;;;;;;4.18;100.00;100693.66;4908199;29;20044;-75
2024/01/10 01:43:49;;;;;;;20.80;13.75;;;;;;;4.15;100.00;100687.72;4906005;29;20107;-75
2024/01/10 01:46:15;;;;;;;17.25;13.48;;;;;;;4.09;100.00;100694.09;4879291;29;20131;-75
2024/01/10 01:48:41;;;;;;;21.08;14.40;;;;;;;4.12;100.00;100692.16;4907012;29;20392;-75
2024/01/10 01:51:09;;;;;;;18.88;14.13;;;;;;;4.12;100.00;100693.97;4904595;29;20036;-75
2024/01/10 01:53:35;;;;;;;18.38;14.32;;;;;;;4.13;100.00;100695.63;4907578;29;20036;-74
2024/01/10 01:56:05;;;;;;;20.77;15.07;;;;;;;4.11;100.00;100698.34;4897994;29;20039;-76
2024/01/10 01:58:31;;;;;;;22.35;14.85;;;;;;;4.05;100.00;100693.41;4899003;29;20120;-75
2024/01/10 02:00:56;;;;;;;23.23;15.48;;;;;;;3.99;100.00;100692.84;4901629;29;20071;-74
2024/01/10 02:03:22;;;;;;;19.42;14.43;;;;;;;3.97;100.00;100694.69;4901889;29;20123;-75
2024/01/10 02:05:47;;;;;;;19.33;14.77;;;;;;;3.97;100.00;100694.69;4903777;29;20068;-73
2024/01/10 02:08:13;;;;;;;20.38;15.30;;;;;;;3.98;100.00;100691.16;4907493;29;20115;-74
2024/01/10 02:10:39;;;;;;;20.70;15.82;;;;;;;3.99;100.00;100698.06;4905269;29;20028;-75
2024/01/10 02:13:05;;;;;;;20.48;14.43;;;;;;;4.00;100.00;100689.31;4907960;29;20135;-75
2024/01/10 02:15:31;;;;;;;20.25;14.75;;;;;;;3.99;100.00;100695.47;4901938;29;20032;-75
2024/01/10 02:17:56;;;;;;;24.50;15.27;;;;;;;4.02;100.00;100693.53;4907152;29;20040;-75
2024/01/10 02:20:22;;;;;;;20.67;15.40;;;;;;;4.02;100.00;100687.47;4907934;29;20478;-75
2024/01/10 02:22:48;;;;;;;23.00;15.40;;;;;;;3.97;100.00;100689.47;4906051;29;20061;-75
2024/01/10 02:25:14;;;;;;;20.88;15.00;;;;;;;3.96;100.00;100692.97;4904298;29;20054;-75
2024/01/10 02:27:40;;;;;;;20.70;15.13;;;;;;;4.01;100.00;100691.00;4907250;29;20040;-75
2024/01/10 02:30:08;;;;;;;20.00;15.07;;;;;;;4.04;100.00;100693.47;4904061;29;20129;-75
2024/01/10 02:32:34;;;;;;;21.92;16.15;;;;;;;4.05;100.00;100685.56;4907794;29;20036;-75
2024/01/10 02:35:00;;;;;;;24.30;16.20;;;;;;;4.08;100.00;100692.41;4897716;29;20360;-74
2024/01/10 02:37:25;;;;;;;24.40;16.55;;;;;;;4.10;100.00;100690.56;4904860;29;20286;-74
2024/01/10 02:39:52;;;;;;;21.70;15.32;;;;;;;4.13;100.00;100685.19;4910859;29;20058;-74
2024/01/10 02:42:18;;;;;;;23.23;16.10;;;;;;;4.17;100.00;100691.97;4908785;29;20123;-75
2024/01/10 02:44:43;;;;;;;24.02;16.13;;;;;;;4.24;100.00;100689.91;4904792;29;20378;-74
2024/01/10 02:47:11;;;;;;;24.75;16.73;;;;;;;4.23;100.00;100682.97;4907158;29;20037;-76
2024/01/10 02:49:37;;;;;;;19.15;15.40;;;;;;;4.23;100.00;100680.38;4907568;29;20420;-76
2024/01/10 02:52:03;;;;;;;20.20;15.35;;;;;;;4.23;100.00;100683.81;4904580;29;20090;-75
2024/01/10 02:54:28;;;;;;;23.02;15.52;;;;;;;4.23;100.00;100685.59;4907204;29;20437;-75
2024/01/10 02:56:53;;;;;;;21.60;15.50;;;;;;;4.25;100.00;100674.13;4904647;29;20087;-74
2024/01/10 02:59:19;;;;;;;21.58;15.20;;;;;;;4.27;100.00;100672.31;4905617;29;20040;-75
2024/01/10 03:01:44;;;;;;;21.17;15.48;;;;;;;4.27;100.00;100677.53;4904695;29;20028;-75
2024/01/10 03:04:10;;;;;;;19.23;14.40;;;;;;;4.31;100.00;100683.44;4902360;29;20060;-74
2024/01/10 03:06:35;;;;;;;18.52;14.30;;;;;;;4.29;100.00;100678.31;4906435;29;20036;-73
2024/01/10 03:09:01;;;;;;;19.50;15.10;;;;;;;4.30;100.00;100671.31;4899815;29;20024;-75
2024/01/10 03:11:26;;;;;;;24.83;14.57;;;;;;;4.30;100.00;100677.34;4901400;29;20068;-73
2024/01/10 03:14:01;;;;;;;19.85;14.77;;;;;;;4.31;100.00;100668.59;4889852;29;20426;-75
2024/01/10 03:16:26;;;;;;;19.65;14.68;;;;;;;4.31;100.00;100676.44;4905202;29;20040;-75
2024/01/10 03:18:52;;;;;;;23.13;14.95;;;;;;;4.29;100.00;100675.69;4907339;29;20037;-75
2024/01/10 03:21:24;;;;;;;24.58;15.93;;;;;;;4.27;100.00;100669.69;4905295;29;20032;-73
2024/01/10 03:23:50;;;;;;;20.75;15.18;;;;;;;4.23;100.00;100655.09;4904830;29;20083;-75
2024/01/10 03:26:15;;;;;;;23.35;15.40;;;;;;;4.21;100.00;100651.69;4906475;29;20493;-74
2024/01/10 03:28:41;;;;;;;23.52;14.63;;;;;;;4.20;100.00;100652.63;4886900;29;20478;-73
2024/01/10 03:31:07;;;;;;;20.05;14.77;;;;;;;4.25;100.00;100655.84;4905075;29;20036;-75
2024/01/10 03:33:32;;;;;;;20.38;15.38;;;;;;;4.28;100.00;100653.09;4903815;29;20025;-74
2024/01/10 03:35:57;;;;;;;19.40;15.20;;;;;;;4.31;100.00;100655.53;4903656;29;20060;-75
2024/01/10 03:38:23;;;;;;;24.13;15.40;;;;;;;4.30;100.00;100656.44;4889813;29;20374;-74
2024/01/10 03:40:48;;;;;;;22.48;15.68;;;;;;;4.26;100.00;100657.53;4904644;29;20036;-74
2024/01/10 03:43:14;;;;;;;21.00;15.35;;;;;;;4.21;100.00;100656.91;4902429;29;20064;-75
2024/01/10 03:45:39;;;;;;;21.20;15.27;;;;;;;4.15;100.00;100652.00;4908754;29;20028;-74
2024/01/10 03:48:06;;;;;;;20.95;15.75;;;;;;;4.13;100.00;100653.84;4900162;29;20465;-74
2024/01/10 03:50:31;;;;;;;24.60;16.35;;;;;;;4.07;100.00;100654.13;4899165;29;20036;-75
2024/01/10 03:52:56;;;;;;;20.63;16.13;;;;;;;3.98;100.00;100659.81;4903809;29;20039;-74
2024/01/10 03:55:22;;;;;;;24.83;16.55;;;;;;;3.90;100.00;100647.13;4904065;29;20127;-75
2024/01/10 03:57:47;;;;;;;24.80;16.77;;;;;;;3.84;100.00;100657.00;4902515;29;20040;-75
2024/01/10 04:00:13;;;;;;;23.80;16.08;;;;;;;3.83;100.00;100655.34;4905185;29;20039;-73
2024/01/10 04:02:38;;;;;;;25.88;16.38;;;;;;;3.81;100.00;100651.94;4904326;29;20147;-74
2024/01/10 04:05:09;;;;;;;22.85;17.27;;;;;;;3.76;100.00;100664.38;4901699;29;20036;-74
2024/01/10 04:07:34;;;;;;;;;;;;;;;3.72;100.00;100663.66;4900353;29;20040;-76
2024/01/10 04:10:00;;;;;;;21.95;16.67;;;;;;;3.71;100.00;100652.38;4903654;29;19930;-75
2024/01/10 04:12:25;;;;;;;24.52;16.55;;;;;;;3.69;100.00;100658.59;4904254;29;20028;-74
2024/01/10 04:14:51;;;;;;;24.25;17.08;;;;;;;3.67;100.00;100669.09;4904113;29;20433;-74
2024/01/10 04:17:16;;;;;;;26.08;18.10;;;;;;;3.68;100.00;100662.13;4903283;29;20067;-75
2024/01/10 04:19:41;;;;;;;27.80;18.38;;;;;;;3.66;100.00;100675.25;4905024;29;20037;-75
2024/01/10 04:22:07;;;;;;;25.23;17.38;;;;;;;3.60;100.00;100670.31;4905594;29;20055;-76
2024/01/10 04:24:32;;;;;;;25.83;18.30;;;;;;;3.59;100.00;100673.81;4904185;29;20037;-75
2024/01/10 04:26:58;;;;;;;24.15;17.73;;;;;;;3.61;100.00;100672.00;4904211;29;20491;-74
2024/01/10 04:29:23;;;;;;;27.17;17.42;;;;;;;3.67;100.00;100681.31;4903426;29;20036;-74
2024/01/10 04:31:49;;;;;;;24.20;17.30;;;;;;;3.73;100.00;100681.03;4904100;29;20084;-75
2024/01/10 04:34:15;;;;;;;27.55;17.92;;;;;;;3.76;100.00;100680.91;4903487;29;20040;-73
2024/01/10 04:36:40;;;;;;;27.55;17.10;;;;;;;3.82;100.00;100684.97;4904737;29;20144;-76
2024/01/10 04:39:06;;;;;;;21.23;16.30;;;;;;;3.88;100.00;100675.09;4908277;29;20048;-74
2024/01/10 04:41:31;;;;;;;30.08;17.83;;;;;;;3.93;100.00;100672.25;4910638;29;20028;-75
2024/01/10 04:43:57;;;;;;;21.98;17.42;;;;;;;3.92;100.00;100681.00;4910968;29;20085;-75
2024/01/10 04:46:22;;;;;;;27.02;18.20;;;;;;;3.88;100.00;100674.25;4905267;29;20040;-77
2024/01/10 04:48:47;;;;;;;26.55;18.10;;;;;;;3.88;100.00;100676.84;4898795;29;20390;-75
2024/01/10 04:51:14;;;;;;;23.85;16.83;;;;;;;3.84;100.00;100676.13;4901544;29;20049;-74
2024/01/10 04:53:40;;;;;;;25.90;17.02;;;;;;;3.84;100.00;100672.69;4907713;29;20184;-74
2024/01/10 04:56:05;;;;;;;27.70;17.85;;;;;;;3.83;100.00;100674.44;4899295;29;20501;-75
2024/01/10 04:58:32;;;;;;;25.83;17.38;;;;;;;3.82;100.00;100675.38;4902143;29;20036;-74
2024/01/10 05:00:58;;;;;;;25.92;17.85;;;;;;;3.85;100.00;100680.44;4904967;29;20055;-75
2024/01/10 05:03:23;;;;;;;23.45;17.02;;;;;;;3.89;100.00;100674.16;4907146;29;20407;-75
2024/01/10 05:05:50;;;;;;;23.63;16.05;;;;;;;3.89;100.00;100675.94;4901985;29;20123;-75
2024/01/10 05:08:15;;;;;;;25.55;17.88;;;;;;;3.89;100.00;100675.94;4903568;29;20508;-75
2024/01/10 05:10:40;;;;;;;24.45;17.27;;;;;;;3.91;100.00;100684.53;4903626;29;20032;-75
2024/01/10 05:13:06;;;;;;;23.92;17.25;;;;;;;3.90;100.00;100688.91;4907727;29;20055;-74
2024/01/10 05:15:31;;;;;;;24.58;17.98;;;;;;;3.88;100.00;100689.91;4901583;29;20055;-75
2024/01/10 05:17:57;;;;;;;25.77;18.45;;;;;;;3.90;100.00;100698.50;4890656;29;20099;-75
2024/01/10 05:20:22;;;;;;;23.42;17.20;;;;;;;3.92;100.00;100691.44;4911222;29;20091;-74
2024/01/10 05:22:48;;;;;;;22.80;17.65;;;;;;;3.93;100.00;100698.38;4908142;29;20043;-74
2024/01/10 05:25:13;;;;;;;27.25;18.02;;;;;;;3.92;100.00;100694.06;4907476;29;20028;-75
2024/01/10 05:27:38;;;;;;;23.17;17.27;;;;;;;3.90;100.00;100693.28;4908629;29;20477;-75
2024/01/10 05:30:04;;;;;;;25.33;17.45;;;;;;;3.82;100.00;100691.06;4906241;29;20051;-75
2024/01/10 05:32:30;;;;;;;23.83;17.80;;;;;;;3.85;100.00;100701.34;4907849;29;20135;-75
2024/01/10 05:34:55;;;;;;;28.08;17.38;;;;;;;3.88;100.00;100700.34;4908392;29;20362;-76
2024/01/10 05:37:21;;;;;;;25.83;17.88;;;;;;;3.89;100.00;100699.44;4905282;29;20077;-74
2024/01/10 05:39:47;;;;;;;25.40;17.50;;;;;;;3.88;100.00;100700.34;4907010;29;20051;-74
2024/01/10 05:42:14;;;;;;;25.13;18.65;;;;;;;3.91;100.00;100705.41;4907543;29;20032;-75
2024/01/10 05:44:40;;;;;;;25.88;17.42;;;;;;;3.90;100.00;100703.72;4906340;29;20036;-76
2024/01/10 05:47:05;;;;;;;26.70;17.23;;;;;;;3.93;100.00;100703.59;4907295;29;20056;-74
2024/01/10 05:49:32;;;;;;;22.63;17.15;;;;;;;3.94;100.00;100705.28;4908235;29;20139;-74
2024/01/10 05:51:58;;;;;;;26.50;16.95;;;;;;;3.95;100.00;100706.94;4905487;29;20928;-73
2024/01/10 05:54:23;;;;;;;25.38;18.17;;;;;;;3.92;100.00;100712.34;4909386;29;20075;-74
2024/01/10 05:56:49;;;;;;;23.58;18.50;;;;;;;3.91;100.00;100705.41;4902884;29;20032;-76
2024/01/10 05:59:16;;;;;;;29.25;17.80;;;;;;;3.91;100.00;100713.25;4907260;29;20036;-73
2024/01/10 06:01:42;;;;;;;26.38;18.15;;;;;;;3.90;100.00;100701.09;4905204;29;20476;-73
2024/01/10 06:04:07;;;;;;;23.52;17.70;;;;;;;3.89;100.00;100707.28;4903790;29;20060;-72
2024/01/10 06:06:33;;;;;;;25.05;17.70;;;;;;;3.87;100.00;100698.66;4900032;29;20036;-75
2024/01/10 06:08:58;;;;;;;25.17;18.02;;;;;;;3.82;100.00;100700.66;4906413;29;20043;-74
2024/01/10 06:11:24;;;;;;;25.40;18.42;;;;;;;3.77;100.00;100708.66;4904045;29;20123;-74
2024/01/10 06:13:49;;;;;;;26.98;18.80;;;;;;;3.75;100.00;100709.69;4902396;29;20050;-73
2024/01/10 06:16:15;;;;;;;30.25;19.20;;;;;;;3.75;100.00;100707.06;4898046;29;20230;-76
2024/01/10 06:18:40;;;;;;;27.70;19.17;;;;;;;3.76;100.00;100706.16;4908389;29;20036;-75
2024/01/10 06:21:06;;;;;;;24.50;18.05;;;;;;;3.81;100.00;100712.00;4903527;29;20036;-73
2024/01/10 06:23:32;;;;;;;27.25;19.23;;;;;;;3.84;100.00;100709.22;4902798;29;20025;-76
2024/01/10 06:25:57;;;;;;;25.90;18.85;;;;;;;3.88;100.00;100708.19;4900913;29;20477;-75
2024/01/10 06:28:23;;;;;;;30.60;18.50;;;;;;;3.91;100.00;100705.41;4903299;29;20032;-74
2024/01/10 06:30:49;;;;;;;27.60;18.90;;;;;;;3.92;100.00;100705.34;4903198;29;20149;-73
2024/01/10 06:33:15;;;;;;;25.85;18.33;;;;;;;3.94;100.00;100703.53;4901449;29;20048;-73
2024/01/10 06:35:43;;;;;;;28.25;17.80;;;;;;;3.94;100.00;100703.53;4883821;29;20045;-74
2024/01/10 06:38:09;;;;;;;25.17;17.90;;;;;;;3.98;100.00;100705.06;4888386;29;20044;-74
2024/01/10 06:40:36;;;;;;;26.40;18.25;;;;;;;4.01;100.00;100698.81;4901818;29;20056;-74
2024/01/10 06:43:02;;;;;;;24.58;17.35;;;;;;;4.02;100.00;100705.75;4885757;29;20064;-74
2024/01/10 06:45:28;;;;;;;24.60;16.58;;;;;;;4.05;100.00;100714.31;4905676;29;20020;-76
2024/01/10 06:47:54;;;;;;;24.42;17.98;;;;;;;4.07;100.00;100716.81;4904147;29;20048;-74
2024/01/10 06:50:20;;;;;;;26.13;18.45;;;;;;;4.11;100.00;100710.56;4904417;29;20028;-74
2024/01/10 06:52:46;;;;;;;27.20;17.63;;;;;;;4.13;100.00;100711.31;4904767;29;20059;-75
2024/01/10 06:55:11;;;;;;;24.17;17.58;;;;;;;4.15;100.00;100703.41;4903673;29;20470;-75
2024/01/10 06:57:37;;;;;;;25.85;18.05;;;;;;;4.17;100.00;100712.03;4905786;29;20040;-76
2024/01/10 07:00:06;;;;;;;25.58;17.27;;;;;;;4.18;100.00;100714.56;4906623;29;20039;-73
2024/01/10 07:02:32;;;;;;;26.25;17.83;;;;;;;4.22;100.00;100715.25;4900702;29;20481;-73
2024/01/10 07:04:58;;;;;;;25.42;18.23;;;;;;;4.23;100.00;100716.94;4905620;29;20035;-75
2024/01/10 07:07:23;;;;;;;26.73;18.35;;;;;;;4.23;100.00;100717.78;4905587;29;20596;-74
2024/01/10 07:09:49;;;;;;;29.35;17.20;;;;;;;4.22;100.00;100726.53;4904502;29;20111;-76
2024/01/10 07:12:14;;;;;;;24.02;17.35;;;;;;;4.23;100.00;100728.25;4901742;29;20559;-77
2024/01/10 07:14:39;;;;;;;26.15;18.63;;;;;;;4.21;100.00;100724.84;4886789;29;20465;-75
2024/01/10 07:17:06;;;;;;;26.05;18.27;;;;;;;4.18;100.00;100725.00;4903345;29;20066;-74
2024/01/10 07:19:32;;;;;;;25.48;18.13;;;;;;;4.16;100.00;100732.06;4898570;29;20056;-74
2024/01/10 07:21:57;;;;;;;25.65;17.92;;;;;;;4.16;100.00;100734.69;4904057;29;20143;-75
2024/01/10 07:24:23;;;;;;;28.00;18.50;;;;;;;4.19;100.00;100736.28;4905812;29;20430;-75
2024/01/10 07:26:49;;;;;;;30.05;19.45;;;;;;;4.22;100.00;100737.00;4903449;29;20145;-75
2024/01/10 07:29:14;;;;;;;30.73;20.27;;;;;;;4.23;100.00;100743.91;4905056;29;20476;-76
2024/01/10 07:31:40;;;;;;;24.48;18.35;;;;;;;4.21;100.00;100756.19;4903203;29;20036;-75
2024/01/10 07:34:06;;;;;;;23.80;17.58;;;;;;;4.17;100.00;100748.59;4902974;29;20032;-74
2024/01/10 07:36:33;;;;;;;21.35;17.42;;;;;;;4.13;100.00;100753.09;4896408;29;20032;-75
2024/01/10 07:39:00;;;;;;;26.33;17.60;;;;;;;4.10;100.00;100753.25;4917101;29;20607;-76
2024/01/10 07:41:25;;;;;;;25.15;17.45;;;;;;;4.08;100.00;100755.09;4909542;29;20088;-74
2024/01/10 07:43:51;;;;;;;30.08;17.80;;;;;;;4.11;100.00;100760.19;4911785;29;20028;-75
2024/01/10 07:46:17;;;;;;;27.58;18.65;;;;;;;4.09;100.00;100762.00;4905514;29;20058;-75
2024/01/10 07:48:42;;;;;;;26.80;18.23;;;;;;;4.09;100.00;100767.22;4903017;29;20115;-75
2024/01/10 07:51:08;;;;;;;24.23;17.25;;;;;;;4.08;100.00;100765.53;4902129;29;20373;-74
2024/01/10 07:53:33;;;;;;;24.60;17.90;;;;;;;4.08;100.00;100766.38;4904911;29;20032;-75
2024/01/10 07:55:59;;;;;;;25.13;17.88;;;;;;;4.10;100.00;100769.78;4903447;29;20044;-75
2024/01/10 07:58:25;;;;;;;27.48;18.73;;;;;;;4.11;100.00;100771.47;4905037;29;20047;-76
2024/01/10 08:00:51;;;;;;;26.30;19.05;;;;;;;4.13;100.00;100774.00;4903427;29;20121;-75
2024/01/10 08:03:16;;;;;;;26.40;18.23;;;;;;;4.11;100.00;100775.84;4903768;29;20055;-75
2024/01/10 08:05:42;;;;;;;24.23;16.77;;;;;;;4.09;100.00;100777.69;4904881;29;20111;-76
2024/01/10 08:08:09;;;;;;;29.88;18.17;;;;;;;4.11;100.00;100781.94;4904961;29;20084;-76
2024/01/10 08:10:34;;;;;;;24.58;17.77;;;;;;;4.15;100.00;100780.00;4900189;29;20373;-74
2024/01/10 08:13:00;;;;;;;30.10;19.20;;;;;;;4.20;100.00;100778.00;4904930;29;20043;-74
2024/01/10 08:15:25;;;;;;;24.48;17.02;;;;;;;4.25;100.00;100783.00;4902922;29;20119;-75
2024/01/10 08:17:51;;;;;;;24.80;16.95;;;;;;;4.29;100.00;100782.81;4893351;29;20034;-74
2024/01/10 08:20:20;;;;;;;25.27;17.95;;;;;;;4.33;100.00;100786.97;4905706;29;20504;-75
2024/01/10 08:22:47;;;;;;;26.92;17.27;;;;;;;4.34;100.00;100783.44;4885879;29;20036;-76
2024/01/10 08:25:15;;;;;;;22.63;16.20;;;;;;;4.37;100.00;100783.28;4902346;29;20333;-76
2024/01/10 08:27:40;;;;;;;21.80;16.05;;;;;;;4.37;100.00;100788.50;4903497;29;20028;-74
2024/01/10 08:30:09;;;;;;;23.45;16.92;;;;;;;4.38;100.00;100790.22;4899875;29;21532;-75
2024/01/10 08:32:36;;;;;;;23.30;16.17;;;;;;;4.38;100.00;100787.59;4901639;29;20071;-75
2024/01/10 08:35:04;;;;;;;22.40;16.80;;;;;;;4.42;100.00;100786.50;4898417;29;20032;-75
2024/01/10 08:37:30;;;;;;;25.80;16.92;;;;;;;4.43;100.00;100797.81;4902478;29;20047;-75
2024/01/10 08:39:55;;;;;;;28.08;18.80;;;;;;;4.43;100.00;100801.28;4904196;29;20047;-74
2024/01/10 08:42:21;;;;;;;26.90;17.75;;;;;;;4.47;100.00;100797.63;4903329;29;20072;-73
2024/01/10 08:44:46;;;;;;;24.35;17.25;;;;;;;4.50;100.00;100800.06;4901800;29;20478;-74
2024/01/10 08:47:12;;;;;;;24.73;17.38;;;;;;;4.53;100.00;100805.16;4902347;29;20120;-75
2024/01/10 08:49:38;;;;;;;28.27;19.02;;;;;;;4.57;100.00;100805.00;4900872;29;20028;-74
2024/01/10 08:52:04;;;;;;;23.30;16.85;;;;;;;4.57;100.00;100810.22;4901089;29;20055;-75
2024/01/10 08:54:29;;;;;;;27.60;17.35;;;;;;;4.60;100.00;100804.84;4904563;29;20043;-76
2024/01/10 08:56:55;;;;;;;26.88;16.08;;;;;;;4.63;100.00;100810.78;4901572;29;20036;-74
2024/01/10 08:59:21;;;;;;;25.42;16.63;;;;;;;4.69;100.00;100814.88;4904272;29;20185;-74
2024/01/10 09:01:46;;;;;;;29.65;16.23;;;;;;;4.72;100.00;100814.69;4900479;29;20063;-74
2024/01/10 09:04:12;;;;;;;20.70;15.40;;;;;;;4.73;100.00;100821.63;4902134;29;20413;-75
2024/01/10 09:06:37;;;;;;;22.90;16.08;;;;;;;4.74;100.00;100823.31;4900550;29;20037;-74
2024/01/10 09:09:03;;;;;;;22.05;16.10;;;;;;;4.73;100.00;100825.09;4901681;29;20040;-74
2024/01/10 09:11:29;;;;;;;24.23;16.50;;;;;;;4.76;100.00;100829.34;4891823;29;20040;-74
2024/01/10 09:13:54;;;;;;;22.17;14.75;;;;;;;4.72;100.00;100835.63;4886751;29;20040;-74
2024/01/10 09:16:20;;;;;;;18.63;15.05;;;;;;;4.73;100.00;100832.09;4902094;29;20032;-76
2024/01/10 09:18:45;;;;;;;20.35;14.43;;;;;;;4.77;100.00;100825.81;4903011;29;20443;-74
2024/01/10 09:21:11;;;;;;;22.77;15.20;;;;;;;4.83;100.00;100835.97;4904327;29;20115;-75
2024/01/10 09:23:36;;;;;;;21.30;15.48;;;;;;;4.89;100.00;100838.25;4902003;29;20134;-76
2024/01/10 09:26:02;;;;;;;24.23;15.80;;;;;;;4.93;100.00;100839.81;4900355;29;20504;-74
2024/01/10 09:28:28;;;;;;;21.52;14.90;;;;;;;4.96;100.00;100844.88;4904392;29;20025;-74
2024/01/10 09:30:54;;;;;;;22.17;16.10;;;;;;;4.97;100.00;100841.34;4901329;29;20033;-73
2024/01/10 09:33:19;;;;;;;21.60;15.63;;;;;;;4.96;100.00;100850.13;4901710;29;20458;-75
2024/01/10 09:35:45;;;;;;;23.02;15.88;;;;;;;4.90;100.00;100845.19;4898951;29;20040;-74
2024/01/10 09:38:11;;;;;;;22.27;16.10;;;;;;;4.86;100.00;100848.88;4899840;29;20370;-76
2024/01/10 09:40:37;;;;;;;23.48;15.02;;;;;;;4.89;100.00;100853.94;4903159;23;20035;-76
2024/01/10 09:43:05;;;;;;;25.77;16.40;;;;;;;4.90;100.00;100855.66;4948153;28;20043;-76
2024/01/10 09:45:34;;;;;;;21.42;15.13;;;;;;;4.86;100.00;100854.13;4946298;29;20473;-76
2024/01/10 09:48:01;;;;;;;23.90;15.57;;;;;;;4.82;100.00;100853.44;4935657;29;20024;-76
2024/01/10 09:50:27;;;;;;;23.15;15.50;;;;;;;4.82;100.00;100852.56;4943503;29;20404;-75
2024/01/10 09:53:04;;;;;;;24.35;15.63;;;;;;;4.77;100.00;100854.56;4944109;29;20077;-76
2024/01/10 09:55:34;;;;;;;21.33;16.08;;;;;;;4.82;100.00;100847.34;4945706;29;20064;-75
2024/01/10 09:58:10;;;;;;;22.95;15.52;;;;;;;4.84;100.00;100850.72;4943720;29;20086;-76
2024/01/10 10:00:36;;;;;;;24.27;16.60;;;;;;;4.85;100.00;100852.41;4949158;28;20031;-74
2024/01/10 10:03:08;;;;;;;22.58;16.27;;;;;;;4.84;100.00;100850.72;4944020;28;20042;-74
2024/01/10 10:05:34;;;;;;;22.33;16.10;;;;;;;4.87;100.00;100853.19;4948860;28;20039;-76
2024/01/10 10:08:00;;;;;;;22.10;16.55;;;;;;;4.96;100.00;100850.13;4953109;29;20038;-75
2024/01/10 10:10:27;;;;;;;25.42;15.70;;;;;;;5.05;100.00;100854.91;4950058;29;20063;-74
2024/01/10 10:12:53;;;;;;;23.08;16.67;;;;;;;5.07;100.00;100847.81;4932407;29;20023;-76
2024/01/10 10:15:23;;;;;;;23.17;16.95;;;;;;;5.11;100.00;100849.38;4952549;28;20042;-77
2024/01/10 10:17:50;;;;;;;24.90;16.80;;;;;;;5.16;100.00;100855.22;4947218;29;20174;-76
2024/01/10 10:20:38;;;;;;;20.17;16.50;;;;;;;5.19;100.00;100857.66;4943264;29;20199;-75
2024/01/10 10:23:12;;;;;;;22.77;15.80;;;;;;;5.24;100.00;100845.19;4260773;28;10000881;-77
2024/01/10 10:25:43;;;;;;;23.95;15.35;;;;;;;5.32;100.00;100852.66;4942823;28;20523;-78
2024/01/10 10:28:08;;;;;;;24.08;15.45;;;;;;;5.36;100.00;100848.94;4947311;29;20067;-76
2024/01/10 10:30:34;;;;;;;24.27;15.43;;;;;;;5.39;100.00;100853.19;4943490;28;20145;-76
2024/01/10 10:33:01;;;;;;;17.15;14.05;;;;;;;5.40;100.00;100850.50;4947307;29;20141;-76
2024/01/10 10:35:27;;;;;;;20.92;15.30;;;;;;;5.45;100.00;100852.88;4946597;28;20532;-76
2024/01/10 10:37:53;;;;;;;20.02;13.90;;;;;;;5.45;100.00;100847.66;4950124;29;20074;-76
2024/01/10 10:40:20;;;;;;;18.35;13.50;;;;;;;5.43;100.00;100846.88;4256720;28;10001405;-76
2024/01/10 10:42:49;;;;;;;19.05;13.43;;;;;;;5.47;100.00;100845.81;4963698;28;20035;-76
2024/01/10 10:45:19;;;;;;;19.52;13.38;;;;;;;5.49;100.00;100843.94;4961492;28;20049;-76
2024/01/10 10:47:48;;;;;;;21.35;13.52;;;;;;;5.45;100.00;100842.41;4964838;28;20034;-75
2024/01/10 10:50:25;;;;;;;23.20;13.97;;;;;;;5.47;100.00;100840.56;4949477;28;20691;-76
2024/01/10 10:52:51;;;;;;;21.73;13.57;;;;;;;5.52;100.00;100843.78;4960424;28;20287;-77
2024/01/10 10:55:19;;;;;;;24.13;14.00;;;;;;;5.58;100.00;100846.09;4965916;28;20049;-76
2024/01/10 10:57:47;;;;;;;18.77;12.85;;;;;;;5.60;100.00;100846.84;4968072;28;20026;-75
2024/01/10 11:00:17;;;;;;;22.10;12.32;;;;;;;5.56;100.00;100840.09;4966826;28;20046;-75
2024/01/10 11:02:45;;;;;;;17.45;12.75;;;;;;;5.52;100.00;100843.78;4960971;28;20554;-75
2024/01/10 11:05:11;;;;;;;15.07;11.45;;;;;;;5.41;100.00;100846.97;4960005;28;20035;-76